sensor_id;sensor_type;location;lat;lon;timestamp;temperature;humidity
1455;DHT22;721;48.168;12.818;2023-08-21T00:00:42;22.30;11.10
1455;DHT22;721;48.168;12.818;2023-08-21T00:03:09;22.30;11.50
1455;DHT22;721;48.168;12.818;2023-08-21T00:05:36;22.20;12.10
1455;DHT22;721;48.168;12.818;2023-08-21T00:08:03;22.10;13.20
1455;DHT22;721;48.168;12.818;2023-08-21T00:10:30;22.10;13.20
1455;DHT22;721;48.168;12.818;2023-08-21T00:12:57;22.10;12.70
1455;DHT22;721;48.168;12.818;2023-08-21T00:15:23;22.00;14.00
1455;DHT22;721;48.168;12.818;2023-08-21T00:17:52;22.00;13.80
1455;DHT22;721;48.168;12.818;2023-08-21T00:20:19;21.90;15.50
1455;DHT22;721;48.168;12.818;2023-08-21T00:22:45;21.90;15.10
1455;DHT22;721;48.168;12.818;2023-08-21T00:25:12;21.80;14.90
1455;DHT22;721;48.168;12.818;2023-08-21T00:27:39;22.00;15.10
1455;DHT22;721;48.168;12.818;2023-08-21T00:30:07;21.80;14.80
1455;DHT22;721;48.168;12.818;2023-08-21T00:32:34;21.80;14.70
1455;DHT22;721;48.168;12.818;2023-08-21T00:35:02;21.70;15.70
1455;DHT22;721;48.168;12.818;2023-08-21T00:37:30;21.50;17.10
1455;DHT22;721;48.168;12.818;2023-08-21T00:39:57;21.60;17.30
1455;DHT22;721;48.168;12.818;2023-08-21T00:42:23;21.40;17.40
1455;DHT22;721;48.168;12.818;2023-08-21T00:44:50;21.40;17.30
1455;DHT22;721;48.168;12.818;2023-08-21T00:47:17;21.50;16.80
1455;DHT22;721;48.168;12.818;2023-08-21T00:49:45;21.60;16.30
1455;DHT22;721;48.168;12.818;2023-08-21T00:52:14;21.50;16.50
1455;DHT22;721;48.168;12.818;2023-08-21T00:54:42;21.60;15.60
1455;DHT22;721;48.168;12.818;2023-08-21T00:57:10;21.50;16.50
1455;DHT22;721;48.168;12.818;2023-08-21T00:59:37;21.50;16.60
1455;DHT22;721;48.168;12.818;2023-08-21T01:02:04;21.60;15.90
1455;DHT22;721;48.168;12.818;2023-08-21T01:04:31;21.70;15.20
1455;DHT22;721;48.168;12.818;2023-08-21T01:06:58;21.70;15.30
1455;DHT22;721;48.168;12.818;2023-08-21T01:09:29;21.70;15.20
1455;DHT22;721;48.168;12.818;2023-08-21T01:12:05;21.80;14.80
1455;DHT22;721;48.168;12.818;2023-08-21T01:14:41;21.80;14.30
1455;DHT22;721;48.168;12.818;2023-08-21T01:17:10;21.70;14.70
1455;DHT22;721;48.168;12.818;2023-08-21T01:19:43;21.70;16.00
1455;DHT22;721;48.168;12.818;2023-08-21T01:22:10;21.50;16.20
1455;DHT22;721;48.168;12.818;2023-08-21T01:24:38;21.30;17.60
1455;DHT22;721;48.168;12.818;2023-08-21T01:27:05;21.10;18.70
1455;DHT22;721;48.168;12.818;2023-08-21T01:29:32;21.30;18.30
1455;DHT22;721;48.168;12.818;2023-08-21T01:32:06;21.20;18.70
1455;DHT22;721;48.168;12.818;2023-08-21T01:34:34;21.20;18.70
1455;DHT22;721;48.168;12.818;2023-08-21T01:37:01;21.30;17.70
1455;DHT22;721;48.168;12.818;2023-08-21T01:39:29;21.30;17.20
1455;DHT22;721;48.168;12.818;2023-08-21T01:41:58;21.30;16.00
1455;DHT22;721;48.168;12.818;2023-08-21T01:44:24;21.30;16.60
1455;DHT22;721;48.168;12.818;2023-08-21T01:46:52;21.30;16.50
1455;DHT22;721;48.168;12.818;2023-08-21T01:49:19;21.20;16.90
1455;DHT22;721;48.168;12.818;2023-08-21T01:51:46;21.20;16.20
1455;DHT22;721;48.168;12.818;2023-08-21T01:54:13;21.10;17.00
1455;DHT22;721;48.168;12.818;2023-08-21T01:56:39;21.10;17.80
1455;DHT22;721;48.168;12.818;2023-08-21T01:59:08;20.90;18.50
1455;DHT22;721;48.168;12.818;2023-08-21T02:01:34;20.90;19.40
1455;DHT22;721;48.168;12.818;2023-08-21T02:04:01;20.70;20.70
1455;DHT22;721;48.168;12.818;2023-08-21T02:06:28;20.60;20.10
1455;DHT22;721;48.168;12.818;2023-08-21T02:08:55;20.60;20.70
1455;DHT22;721;48.168;12.818;2023-08-21T02:11:21;20.60;21.20
1455;DHT22;721;48.168;12.818;2023-08-21T02:13:48;20.60;22.30
1455;DHT22;721;48.168;12.818;2023-08-21T02:16:17;20.30;23.30
1455;DHT22;721;48.168;12.818;2023-08-21T02:18:43;20.30;23.80
1455;DHT22;721;48.168;12.818;2023-08-21T02:21:10;20.60;23.50
1455;DHT22;721;48.168;12.818;2023-08-21T02:23:37;20.40;23.10
1455;DHT22;721;48.168;12.818;2023-08-21T02:26:04;20.50;22.40
1455;DHT22;721;48.168;12.818;2023-08-21T02:28:31;20.60;21.70
1455;DHT22;721;48.168;12.818;2023-08-21T02:30:57;20.70;21.40
1455;DHT22;721;48.168;12.818;2023-08-21T02:33:25;20.60;21.40
1455;DHT22;721;48.168;12.818;2023-08-21T02:35:52;20.70;21.30
1455;DHT22;721;48.168;12.818;2023-08-21T02:38:19;20.70;20.70
1455;DHT22;721;48.168;12.818;2023-08-21T02:40:46;20.50;22.70
1455;DHT22;721;48.168;12.818;2023-08-21T02:43:13;20.50;23.10
1455;DHT22;721;48.168;12.818;2023-08-21T02:45:40;20.40;24.30
1455;DHT22;721;48.168;12.818;2023-08-21T02:48:06;20.30;24.10
1455;DHT22;721;48.168;12.818;2023-08-21T02:50:34;20.30;23.60
1455;DHT22;721;48.168;12.818;2023-08-21T02:53:01;20.30;23.90
1455;DHT22;721;48.168;12.818;2023-08-21T02:55:28;20.30;24.40
1455;DHT22;721;48.168;12.818;2023-08-21T02:57:55;20.20;25.30
1455;DHT22;721;48.168;12.818;2023-08-21T03:00:22;20.10;25.20
1455;DHT22;721;48.168;12.818;2023-08-21T03:02:48;20.10;25.60
1455;DHT22;721;48.168;12.818;2023-08-21T03:05:15;20.00;25.60
1455;DHT22;721;48.168;12.818;2023-08-21T03:07:44;20.10;24.80
1455;DHT22;721;48.168;12.818;2023-08-21T03:10:11;20.10;24.40
1455;DHT22;721;48.168;12.818;2023-08-21T03:12:37;20.30;24.30
1455;DHT22;721;48.168;12.818;2023-08-21T03:15:05;20.20;26.10
1455;DHT22;721;48.168;12.818;2023-08-21T03:17:32;20.10;25.50
1455;DHT22;721;48.168;12.818;2023-08-21T03:19:59;20.10;25.90
1455;DHT22;721;48.168;12.818;2023-08-21T03:22:26;20.10;25.40
1455;DHT22;721;48.168;12.818;2023-08-21T03:24:54;20.10;24.70
1455;DHT22;721;48.168;12.818;2023-08-21T03:27:21;20.10;24.90
1455;DHT22;721;48.168;12.818;2023-08-21T03:29:48;20.30;25.10
1455;DHT22;721;48.168;12.818;2023-08-21T03:32:15;20.30;26.20
1455;DHT22;721;48.168;12.818;2023-08-21T03:34:42;20.10;25.30
1455;DHT22;721;48.168;12.818;2023-08-21T03:37:09;20.10;24.70
1455;DHT22;721;48.168;12.818;2023-08-21T03:39:36;20.10;25.80
1455;DHT22;721;48.168;12.818;2023-08-21T03:42:04;20.20;25.60
1455;DHT22;721;48.168;12.818;2023-08-21T03:44:31;20.20;24.40
1455;DHT22;721;48.168;12.818;2023-08-21T03:46:59;20.20;24.30
1455;DHT22;721;48.168;12.818;2023-08-21T03:49:25;20.30;24.10
1455;DHT22;721;48.168;12.818;2023-08-21T03:51:52;20.30;23.10
1455;DHT22;721;48.168;12.818;2023-08-21T03:54:19;20.30;24.10
1455;DHT22;721;48.168;12.818;2023-08-21T03:56:46;20.40;22.30
1455;DHT22;721;48.168;12.818;2023-08-21T03:59:14;20.40;21.50
1455;DHT22;721;48.168;12.818;2023-08-21T04:01:40;20.50;20.90
1455;DHT22;721;48.168;12.818;2023-08-21T04:04:07;20.50;20.20
1455;DHT22;721;48.168;12.818;2023-08-21T04:06:34;20.60;19.50
1455;DHT22;721;48.168;12.818;2023-08-21T04:09:01;20.60;21.00
1455;DHT22;721;48.168;12.818;2023-08-21T04:11:30;20.60;20.70
1455;DHT22;721;48.168;12.818;2023-08-21T04:13:58;20.70;21.20
1455;DHT22;721;48.168;12.818;2023-08-21T04:16:26;20.60;22.60
1455;DHT22;721;48.168;12.818;2023-08-21T04:18:53;20.60;24.90
1455;DHT22;721;48.168;12.818;2023-08-21T04:21:20;20.60;23.30
1455;DHT22;721;48.168;12.818;2023-08-21T04:23:47;20.50;24.00
1455;DHT22;721;48.168;12.818;2023-08-21T04:26:14;20.50;23.90
1455;DHT22;721;48.168;12.818;2023-08-21T04:28:41;20.40;23.90
1455;DHT22;721;48.168;12.818;2023-08-21T04:31:08;20.40;24.60
1455;DHT22;721;48.168;12.818;2023-08-21T04:33:36;20.40;25.40
1455;DHT22;721;48.168;12.818;2023-08-21T04:36:06;20.30;26.60
1455;DHT22;721;48.168;12.818;2023-08-21T04:38:33;20.30;25.80
1455;DHT22;721;48.168;12.818;2023-08-21T04:41:06;20.30;26.30
1455;DHT22;721;48.168;12.818;2023-08-21T04:43:33;20.30;27.40
1455;DHT22;721;48.168;12.818;2023-08-21T04:46:00;20.40;28.20
1455;DHT22;721;48.168;12.818;2023-08-21T04:48:27;20.40;27.60
1455;DHT22;721;48.168;12.818;2023-08-21T04:50:55;20.40;26.70
1455;DHT22;721;48.168;12.818;2023-08-21T04:53:22;20.40;28.30
1455;DHT22;721;48.168;12.818;2023-08-21T04:55:48;20.50;26.30
1455;DHT22;721;48.168;12.818;2023-08-21T04:58:15;20.40;27.70
1455;DHT22;721;48.168;12.818;2023-08-21T05:00:44;20.40;29.30
1455;DHT22;721;48.168;12.818;2023-08-21T05:03:11;20.50;28.50
1455;DHT22;721;48.168;12.818;2023-08-21T05:05:38;20.50;29.20
1455;DHT22;721;48.168;12.818;2023-08-21T05:08:06;20.60;28.40
1455;DHT22;721;48.168;12.818;2023-08-21T05:10:33;20.70;26.50
1455;DHT22;721;48.168;12.818;2023-08-21T05:13:00;20.70;27.50
1455;DHT22;721;48.168;12.818;2023-08-21T05:15:27;20.80;28.00
1455;DHT22;721;48.168;12.818;2023-08-21T05:17:53;20.80;26.80
1455;DHT22;721;48.168;12.818;2023-08-21T05:20:20;20.90;25.00
1455;DHT22;721;48.168;12.818;2023-08-21T05:22:47;21.00;25.10
1455;DHT22;721;48.168;12.818;2023-08-21T05:25:15;21.10;23.60
1455;DHT22;721;48.168;12.818;2023-08-21T05:27:42;21.20;24.10
1455;DHT22;721;48.168;12.818;2023-08-21T05:30:10;21.30;23.30
1455;DHT22;721;48.168;12.818;2023-08-21T05:32:38;21.30;21.60
1455;DHT22;721;48.168;12.818;2023-08-21T05:35:05;21.40;22.10
1455;DHT22;721;48.168;12.818;2023-08-21T05:37:33;21.50;23.80
1455;DHT22;721;48.168;12.818;2023-08-21T05:40:01;21.50;21.90
1455;DHT22;721;48.168;12.818;2023-08-21T05:42:30;21.60;20.90
1455;DHT22;721;48.168;12.818;2023-08-21T05:44:57;21.60;20.20
1455;DHT22;721;48.168;12.818;2023-08-21T05:47:24;21.60;20.70
1455;DHT22;721;48.168;12.818;2023-08-21T05:49:52;21.60;21.00
1455;DHT22;721;48.168;12.818;2023-08-21T05:52:20;21.70;20.50
1455;DHT22;721;48.168;12.818;2023-08-21T05:54:47;21.80;19.40
1455;DHT22;721;48.168;12.818;2023-08-21T05:57:14;22.00;19.80
1455;DHT22;721;48.168;12.818;2023-08-21T05:59:45;22.10;17.60
1455;DHT22;721;48.168;12.818;2023-08-21T06:02:12;22.20;16.60
1455;DHT22;721;48.168;12.818;2023-08-21T06:04:40;22.40;16.80
1455;DHT22;721;48.168;12.818;2023-08-21T06:07:07;22.50;16.30
1455;DHT22;721;48.168;12.818;2023-08-21T06:09:34;22.60;13.50
1455;DHT22;721;48.168;12.818;2023-08-21T06:12:02;22.70;12.20
1455;DHT22;721;48.168;12.818;2023-08-21T06:14:29;22.80;12.30
1455;DHT22;721;48.168;12.818;2023-08-21T06:16:59;22.80;11.50
1455;DHT22;721;48.168;12.818;2023-08-21T06:19:26;22.90;12.10
1455;DHT22;721;48.168;12.818;2023-08-21T06:21:54;23.00;11.60
1455;DHT22;721;48.168;12.818;2023-08-21T06:24:21;23.10;11.70
1455;DHT22;721;48.168;12.818;2023-08-21T06:26:47;23.20;10.50
1455;DHT22;721;48.168;12.818;2023-08-21T06:29:14;23.20;10.30
1455;DHT22;721;48.168;12.818;2023-08-21T06:31:42;23.20;8.60
1455;DHT22;721;48.168;12.818;2023-08-21T06:34:12;23.40;9.50
1455;DHT22;721;48.168;12.818;2023-08-21T06:36:39;23.40;8.60
1455;DHT22;721;48.168;12.818;2023-08-21T06:39:06;23.60;5.90
1455;DHT22;721;48.168;12.818;2023-08-21T06:41:33;23.60;5.40
1455;DHT22;721;48.168;12.818;2023-08-21T06:44:00;23.70;5.60
1455;DHT22;721;48.168;12.818;2023-08-21T06:46:27;23.80;7.50
1455;DHT22;721;48.168;12.818;2023-08-21T06:48:53;24.00;6.00
1455;DHT22;721;48.168;12.818;2023-08-21T06:51:22;24.00;4.90
1455;DHT22;721;48.168;12.818;2023-08-21T06:53:48;24.10;5.80
1455;DHT22;721;48.168;12.818;2023-08-21T06:56:15;24.30;7.10
1455;DHT22;721;48.168;12.818;2023-08-21T06:58:43;24.40;5.60
1455;DHT22;721;48.168;12.818;2023-08-21T07:01:09;24.50;4.60
1455;DHT22;721;48.168;12.818;2023-08-21T07:03:36;24.60;4.00
1455;DHT22;721;48.168;12.818;2023-08-21T07:06:03;24.70;3.70
1455;DHT22;721;48.168;12.818;2023-08-21T07:08:31;24.80;3.30
1455;DHT22;721;48.168;12.818;2023-08-21T07:11:02;24.80;3.80
1455;DHT22;721;48.168;12.818;2023-08-21T07:13:29;25.00;3.30
1455;DHT22;721;48.168;12.818;2023-08-21T07:15:56;25.10;5.00
1455;DHT22;721;48.168;12.818;2023-08-21T07:18:22;25.20;2.40
1455;DHT22;721;48.168;12.818;2023-08-21T07:20:52;25.30;4.40
1455;DHT22;721;48.168;12.818;2023-08-21T07:23:19;25.30;1.90
1455;DHT22;721;48.168;12.818;2023-08-21T07:25:47;25.50;1.20
1455;DHT22;721;48.168;12.818;2023-08-21T07:28:14;25.60;2.50
1455;DHT22;721;48.168;12.818;2023-08-21T07:30:40;25.80;1.30
1455;DHT22;721;48.168;12.818;2023-08-21T07:33:07;25.90;1.00
1455;DHT22;721;48.168;12.818;2023-08-21T07:35:34;26.00;1.00
1455;DHT22;721;48.168;12.818;2023-08-21T07:38:01;26.00;1.00
1455;DHT22;721;48.168;12.818;2023-08-21T07:40:28;26.10;1.00
1455;DHT22;721;48.168;12.818;2023-08-21T07:42:56;26.20;1.00
1455;DHT22;721;48.168;12.818;2023-08-21T07:45:23;26.20;1.00
1455;DHT22;721;48.168;12.818;2023-08-21T07:47:50;26.30;1.00
1455;DHT22;721;48.168;12.818;2023-08-21T07:50:17;26.30;1.00
1455;DHT22;721;48.168;12.818;2023-08-21T07:52:44;26.40;1.00
1455;DHT22;721;48.168;12.818;2023-08-21T07:55:11;26.50;1.00
1455;DHT22;721;48.168;12.818;2023-08-21T07:57:38;26.60;1.00
1455;DHT22;721;48.168;12.818;2023-08-21T08:00:07;26.70;1.00
1455;DHT22;721;48.168;12.818;2023-08-21T08:02:35;26.90;1.00
1455;DHT22;721;48.168;12.818;2023-08-21T08:05:02;27.00;1.00
1455;DHT22;721;48.168;12.818;2023-08-21T08:07:29;27.10;1.00
1455;DHT22;721;48.168;12.818;2023-08-21T08:09:56;27.20;1.00
1455;DHT22;721;48.168;12.818;2023-08-21T08:12:22;27.30;1.00
1455;DHT22;721;48.168;12.818;2023-08-21T08:14:50;27.50;1.00
1455;DHT22;721;48.168;12.818;2023-08-21T08:17:18;27.50;1.00
1455;DHT22;721;48.168;12.818;2023-08-21T08:19:45;27.60;1.00
1455;DHT22;721;48.168;12.818;2023-08-21T08:22:12;27.70;1.00
1455;DHT22;721;48.168;12.818;2023-08-21T08:24:39;27.80;1.00
1455;DHT22;721;48.168;12.818;2023-08-21T08:27:05;27.80;1.00
1455;DHT22;721;48.168;12.818;2023-08-21T08:29:33;27.80;1.00
1455;DHT22;721;48.168;12.818;2023-08-21T08:32:00;27.80;1.00
1455;DHT22;721;48.168;12.818;2023-08-21T08:34:28;27.90;1.00
1455;DHT22;721;48.168;12.818;2023-08-21T08:36:55;27.90;1.00
1455;DHT22;721;48.168;12.818;2023-08-21T08:39:22;28.00;1.00
1455;DHT22;721;48.168;12.818;2023-08-21T08:41:53;28.10;1.00
1455;DHT22;721;48.168;12.818;2023-08-21T08:44:23;28.20;1.00
1455;DHT22;721;48.168;12.818;2023-08-21T08:46:51;28.20;1.00
1455;DHT22;721;48.168;12.818;2023-08-21T08:49:18;28.20;1.00
1455;DHT22;721;48.168;12.818;2023-08-21T08:51:49;28.30;1.00
1455;DHT22;721;48.168;12.818;2023-08-21T08:54:17;28.30;1.00
1455;DHT22;721;48.168;12.818;2023-08-21T08:56:44;28.30;1.00
1455;DHT22;721;48.168;12.818;2023-08-21T08:59:11;28.40;1.00
1455;DHT22;721;48.168;12.818;2023-08-21T09:01:40;28.20;1.00
1455;DHT22;721;48.168;12.818;2023-08-21T09:04:07;28.20;1.00
1455;DHT22;721;48.168;12.818;2023-08-21T09:06:34;28.30;1.00
1455;DHT22;721;48.168;12.818;2023-08-21T09:09:03;28.40;1.00
1455;DHT22;721;48.168;12.818;2023-08-21T09:11:30;28.40;1.00
1455;DHT22;721;48.168;12.818;2023-08-21T09:13:56;28.50;1.00
1455;DHT22;721;48.168;12.818;2023-08-21T09:16:25;28.50;1.00
1455;DHT22;721;48.168;12.818;2023-08-21T09:18:54;28.50;1.00
1455;DHT22;721;48.168;12.818;2023-08-21T09:21:23;28.60;1.00
1455;DHT22;721;48.168;12.818;2023-08-21T09:23:56;28.70;1.00
1455;DHT22;721;48.168;12.818;2023-08-21T09:26:25;28.70;1.00
1455;DHT22;721;48.168;12.818;2023-08-21T09:28:52;28.70;1.00
1455;DHT22;721;48.168;12.818;2023-08-21T09:31:22;28.80;1.00
1455;DHT22;721;48.168;12.818;2023-08-21T09:33:55;28.90;1.00
1455;DHT22;721;48.168;12.818;2023-08-21T09:36:22;28.90;1.00
1455;DHT22;721;48.168;12.818;2023-08-21T09:38:50;29.00;1.00
1455;DHT22;721;48.168;12.818;2023-08-21T09:41:19;29.00;1.00
1455;DHT22;721;48.168;12.818;2023-08-21T09:43:47;28.90;1.00
1455;DHT22;721;48.168;12.818;2023-08-21T09:46:15;29.00;1.00
1455;DHT22;721;48.168;12.818;2023-08-21T09:48:44;29.20;1.00
1455;DHT22;721;48.168;12.818;2023-08-21T09:51:11;29.30;1.00
1455;DHT22;721;48.168;12.818;2023-08-21T09:53:38;29.40;1.00
1455;DHT22;721;48.168;12.818;2023-08-21T09:56:06;29.40;1.00
1455;DHT22;721;48.168;12.818;2023-08-21T09:58:34;29.50;1.00
1455;DHT22;721;48.168;12.818;2023-08-21T10:01:05;29.60;1.00
1455;DHT22;721;48.168;12.818;2023-08-21T10:03:39;29.70;1.00
1455;DHT22;721;48.168;12.818;2023-08-21T10:06:09;29.80;1.00
1455;DHT22;721;48.168;12.818;2023-08-21T10:08:37;29.90;1.00
1455;DHT22;721;48.168;12.818;2023-08-21T10:11:06;29.90;1.00
1455;DHT22;721;48.168;12.818;2023-08-21T10:13:33;30.00;1.00
1455;DHT22;721;48.168;12.818;2023-08-21T10:16:03;30.20;1.00
1455;DHT22;721;48.168;12.818;2023-08-21T10:18:32;30.30;1.00
1455;DHT22;721;48.168;12.818;2023-08-21T10:21:11;30.40;1.00
1455;DHT22;721;48.168;12.818;2023-08-21T10:23:39;30.40;1.00
1455;DHT22;721;48.168;12.818;2023-08-21T10:26:07;30.50;1.00
1455;DHT22;721;48.168;12.818;2023-08-21T10:28:50;30.60;1.00
1455;DHT22;721;48.168;12.818;2023-08-21T10:31:32;30.60;1.00
1455;DHT22;721;48.168;12.818;2023-08-21T10:34:03;30.50;1.00
1455;DHT22;721;48.168;12.818;2023-08-21T10:39:28;30.60;1.00
1455;DHT22;721;48.168;12.818;2023-08-21T10:41:57;30.70;1.00
1455;DHT22;721;48.168;12.818;2023-08-21T10:44:49;30.80;1.00
1455;DHT22;721;48.168;12.818;2023-08-21T10:47:19;30.90;1.00
1455;DHT22;721;48.168;12.818;2023-08-21T10:49:48;31.00;1.00
1455;DHT22;721;48.168;12.818;2023-08-21T10:52:20;31.10;1.00
1455;DHT22;721;48.168;12.818;2023-08-21T10:54:49;31.30;1.00
1455;DHT22;721;48.168;12.818;2023-08-21T10:57:16;31.40;1.00
1455;DHT22;721;48.168;12.818;2023-08-21T10:59:53;31.60;1.00
1455;DHT22;721;48.168;12.818;2023-08-21T11:02:22;31.70;1.00
1455;DHT22;721;48.168;12.818;2023-08-21T11:04:49;31.80;1.00
1455;DHT22;721;48.168;12.818;2023-08-21T11:07:16;31.90;1.00
1455;DHT22;721;48.168;12.818;2023-08-21T11:09:43;32.00;1.00
1455;DHT22;721;48.168;12.818;2023-08-21T11:12:11;32.00;1.00
1455;DHT22;721;48.168;12.818;2023-08-21T11:14:39;32.20;1.00
1455;DHT22;721;48.168;12.818;2023-08-21T11:17:07;32.20;1.00
1455;DHT22;721;48.168;12.818;2023-08-21T11:19:36;32.20;1.00
1455;DHT22;721;48.168;12.818;2023-08-21T11:22:04;32.00;1.00
1455;DHT22;721;48.168;12.818;2023-08-21T11:24:42;31.90;1.00
1455;DHT22;721;48.168;12.818;2023-08-21T11:27:09;32.00;1.00
1455;DHT22;721;48.168;12.818;2023-08-21T11:29:38;32.00;1.00
1455;DHT22;721;48.168;12.818;2023-08-21T11:32:08;32.10;1.00
1455;DHT22;721;48.168;12.818;2023-08-21T11:34:37;32.20;1.00
1455;DHT22;721;48.168;12.818;2023-08-21T11:37:04;32.30;1.00
1455;DHT22;721;48.168;12.818;2023-08-21T11:39:44;32.40;1.00
1455;DHT22;721;48.168;12.818;2023-08-21T11:42:12;32.40;1.00
1455;DHT22;721;48.168;12.818;2023-08-21T11:44:41;32.50;1.00
1455;DHT22;721;48.168;12.818;2023-08-21T11:47:08;32.70;1.00
1455;DHT22;721;48.168;12.818;2023-08-21T11:49:38;32.80;1.00
1455;DHT22;721;48.168;12.818;2023-08-21T11:52:06;32.90;1.00
1455;DHT22;721;48.168;12.818;2023-08-21T11:54:34;33.00;1.00
1455;DHT22;721;48.168;12.818;2023-08-21T11:57:04;33.20;1.00
1455;DHT22;721;48.168;12.818;2023-08-21T11:59:31;33.30;1.00
1455;DHT22;721;48.168;12.818;2023-08-21T12:01:58;33.20;1.00
1455;DHT22;721;48.168;12.818;2023-08-21T12:04:25;33.30;1.00
1455;DHT22;721;48.168;12.818;2023-08-21T12:06:53;33.50;1.00
1455;DHT22;721;48.168;12.818;2023-08-21T12:09:20;33.60;1.00
1455;DHT22;721;48.168;12.818;2023-08-21T12:11:47;33.70;1.00
1455;DHT22;721;48.168;12.818;2023-08-21T12:14:14;33.70;1.00
1455;DHT22;721;48.168;12.818;2023-08-21T12:16:42;33.80;1.00
1455;DHT22;721;48.168;12.818;2023-08-21T12:19:09;33.90;1.00
1455;DHT22;721;48.168;12.818;2023-08-21T12:21:37;34.00;1.00
1455;DHT22;721;48.168;12.818;2023-08-21T12:24:06;34.10;1.00
1455;DHT22;721;48.168;12.818;2023-08-21T12:26:33;34.20;1.00
1455;DHT22;721;48.168;12.818;2023-08-21T12:29:00;34.30;1.00
1455;DHT22;721;48.168;12.818;2023-08-21T12:31:28;34.30;1.00
1455;DHT22;721;48.168;12.818;2023-08-21T12:33:55;34.40;1.00
1455;DHT22;721;48.168;12.818;2023-08-21T12:36:23;34.50;1.00
1455;DHT22;721;48.168;12.818;2023-08-21T12:38:49;34.60;1.00
1455;DHT22;721;48.168;12.818;2023-08-21T12:41:18;34.70;1.00
1455;DHT22;721;48.168;12.818;2023-08-21T12:43:44;34.80;1.00
1455;DHT22;721;48.168;12.818;2023-08-21T12:46:11;34.70;1.00
1455;DHT22;721;48.168;12.818;2023-08-21T12:48:38;34.80;1.00
1455;DHT22;721;48.168;12.818;2023-08-21T12:51:05;34.90;1.00
1455;DHT22;721;48.168;12.818;2023-08-21T12:53:32;35.00;1.00
1455;DHT22;721;48.168;12.818;2023-08-21T12:55:58;34.90;1.00
1455;DHT22;721;48.168;12.818;2023-08-21T12:58:28;35.00;1.00
1455;DHT22;721;48.168;12.818;2023-08-21T13:00:55;35.20;1.00
1455;DHT22;721;48.168;12.818;2023-08-21T13:03:22;35.40;1.00
1455;DHT22;721;48.168;12.818;2023-08-21T13:05:49;35.50;1.00
1455;DHT22;721;48.168;12.818;2023-08-21T13:08:15;35.30;1.00
1455;DHT22;721;48.168;12.818;2023-08-21T13:10:42;35.30;1.00
1455;DHT22;721;48.168;12.818;2023-08-21T13:13:09;35.20;1.00
1455;DHT22;721;48.168;12.818;2023-08-21T13:15:37;35.10;1.00
1455;DHT22;721;48.168;12.818;2023-08-21T13:18:04;35.40;1.00
1455;DHT22;721;48.168;12.818;2023-08-21T13:20:31;35.60;1.00
1455;DHT22;721;48.168;12.818;2023-08-21T13:22:58;35.40;1.00
1455;DHT22;721;48.168;12.818;2023-08-21T13:25:25;35.20;1.00
1455;DHT22;721;48.168;12.818;2023-08-21T13:27:52;35.30;1.00
1455;DHT22;721;48.168;12.818;2023-08-21T13:30:19;35.40;1.00
1455;DHT22;721;48.168;12.818;2023-08-21T13:32:49;35.30;1.00
1455;DHT22;721;48.168;12.818;2023-08-21T13:35:16;35.30;1.00
1455;DHT22;721;48.168;12.818;2023-08-21T13:37:43;35.30;1.00
1455;DHT22;721;48.168;12.818;2023-08-21T13:40:12;35.30;1.00
1455;DHT22;721;48.168;12.818;2023-08-21T13:42:43;35.50;1.00
1455;DHT22;721;48.168;12.818;2023-08-21T13:45:11;35.70;1.00
1455;DHT22;721;48.168;12.818;2023-08-21T13:47:38;35.90;1.00
1455;DHT22;721;48.168;12.818;2023-08-21T13:50:07;36.10;1.00
1455;DHT22;721;48.168;12.818;2023-08-21T13:52:34;36.20;1.00
1455;DHT22;721;48.168;12.818;2023-08-21T13:55:02;36.30;1.00
1455;DHT22;721;48.168;12.818;2023-08-21T13:57:29;36.50;1.00
1455;DHT22;721;48.168;12.818;2023-08-21T13:59:57;36.70;1.00
1455;DHT22;721;48.168;12.818;2023-08-21T14:02:24;36.80;1.00
1455;DHT22;721;48.168;12.818;2023-08-21T14:04:50;36.80;1.00
1455;DHT22;721;48.168;12.818;2023-08-21T14:07:19;36.80;1.00
1455;DHT22;721;48.168;12.818;2023-08-21T14:09:45;36.80;1.00
1455;DHT22;721;48.168;12.818;2023-08-21T14:12:12;36.60;1.00
1455;DHT22;721;48.168;12.818;2023-08-21T14:14:39;36.50;1.00
1455;DHT22;721;48.168;12.818;2023-08-21T14:17:06;36.40;1.00
1455;DHT22;721;48.168;12.818;2023-08-21T14:19:33;36.50;1.00
1455;DHT22;721;48.168;12.818;2023-08-21T14:21:59;36.80;1.00
1455;DHT22;721;48.168;12.818;2023-08-21T14:24:27;36.70;1.00
1455;DHT22;721;48.168;12.818;2023-08-21T14:26:54;36.90;1.00
1455;DHT22;721;48.168;12.818;2023-08-21T14:29:21;36.90;1.00
1455;DHT22;721;48.168;12.818;2023-08-21T14:31:48;37.00;1.00
1455;DHT22;721;48.168;12.818;2023-08-21T14:34:18;37.20;1.00
1455;DHT22;721;48.168;12.818;2023-08-21T14:36:45;37.20;1.00
1455;DHT22;721;48.168;12.818;2023-08-21T14:39:13;37.40;1.00
1455;DHT22;721;48.168;12.818;2023-08-21T14:41:42;37.20;1.00
1455;DHT22;721;48.168;12.818;2023-08-21T14:44:09;37.00;1.00
1455;DHT22;721;48.168;12.818;2023-08-21T14:46:37;37.00;1.00
1455;DHT22;721;48.168;12.818;2023-08-21T14:49:04;37.00;1.00
1455;DHT22;721;48.168;12.818;2023-08-21T14:51:30;36.90;1.00
1455;DHT22;721;48.168;12.818;2023-08-21T14:53:57;36.90;1.00
1455;DHT22;721;48.168;12.818;2023-08-21T14:56:24;36.80;1.00
1455;DHT22;721;48.168;12.818;2023-08-21T14:58:52;36.70;1.00
1455;DHT22;721;48.168;12.818;2023-08-21T15:01:19;37.00;1.00
1455;DHT22;721;48.168;12.818;2023-08-21T15:03:45;37.40;1.00
1455;DHT22;721;48.168;12.818;2023-08-21T15:06:12;37.40;1.00
1455;DHT22;721;48.168;12.818;2023-08-21T15:08:42;37.60;1.00
1455;DHT22;721;48.168;12.818;2023-08-21T15:11:09;37.70;1.00
1455;DHT22;721;48.168;12.818;2023-08-21T15:13:37;37.60;1.00
1455;DHT22;721;48.168;12.818;2023-08-21T15:16:05;37.30;1.00
1455;DHT22;721;48.168;12.818;2023-08-21T15:18:32;37.50;1.00
1455;DHT22;721;48.168;12.818;2023-08-21T15:20:59;37.60;1.00
1455;DHT22;721;48.168;12.818;2023-08-21T15:23:26;37.70;1.00
1455;DHT22;721;48.168;12.818;2023-08-21T15:25:52;37.70;1.00
1455;DHT22;721;48.168;12.818;2023-08-21T15:28:19;37.50;1.00
1455;DHT22;721;48.168;12.818;2023-08-21T15:30:46;37.60;1.00
1455;DHT22;721;48.168;12.818;2023-08-21T15:33:14;37.70;1.00
1455;DHT22;721;48.168;12.818;2023-08-21T15:35:41;37.80;1.00
1455;DHT22;721;48.168;12.818;2023-08-21T15:38:08;37.90;1.00
1455;DHT22;721;48.168;12.818;2023-08-21T15:40:34;37.80;1.00
1455;DHT22;721;48.168;12.818;2023-08-21T15:43:03;37.90;1.00
1455;DHT22;721;48.168;12.818;2023-08-21T15:45:30;37.70;1.00
1455;DHT22;721;48.168;12.818;2023-08-21T15:47:57;37.60;1.00
1455;DHT22;721;48.168;12.818;2023-08-21T15:50:25;37.50;1.00
1455;DHT22;721;48.168;12.818;2023-08-21T15:52:52;37.60;1.00
1455;DHT22;721;48.168;12.818;2023-08-21T15:55:19;37.70;1.00
1455;DHT22;721;48.168;12.818;2023-08-21T15:57:46;37.40;1.00
1455;DHT22;721;48.168;12.818;2023-08-21T16:00:13;37.50;1.00
1455;DHT22;721;48.168;12.818;2023-08-21T16:02:40;37.40;1.00
1455;DHT22;721;48.168;12.818;2023-08-21T16:05:07;37.20;1.00
1455;DHT22;721;48.168;12.818;2023-08-21T16:07:35;37.30;1.00
1455;DHT22;721;48.168;12.818;2023-08-21T16:10:02;37.50;1.00
1455;DHT22;721;48.168;12.818;2023-08-21T16:12:30;37.80;1.00
1455;DHT22;721;48.168;12.818;2023-08-21T16:14:57;37.90;1.00
1455;DHT22;721;48.168;12.818;2023-08-21T16:17:24;37.80;1.00